Table Rock, Nebraska
Current Conditions -  °F | °C
As of 9:53 AM on Friday 31 Oct 2014 (Local Time) from KFNB Reporting Station
Clear Clear  
Wind Chill: -5°   Ceiling: Unl
Heat Index:   Visibility: 10mi
Dew Point: -7°   Wind: 18mph
Humidity: 54%   Direction: 360°N
Pressure: 30.54"   Gusts: 24mph
Location:  40.18°N, 96.1°W
Report Text: KFNB 311453Z AUTO 36016G21KT 10SM CLR 01/M07 A3054 RMK AO2 SLP348 T00111072 51021
Loading
Personal Weather Stations






























Interactive Weather Map
Tropical Storm Tracking
New forecast layout! Learn more

10-Day Weather Forecast

Advertisements
Track Severe Weather on mobile